sensor_id;sensor_type;location;lat;lon;timestamp;temperature;humidity
48860;DHT22;34679;51.436;-2.518;2023-11-21T00:00:21;11.10;99.90
48860;DHT22;34679;51.436;-2.518;2023-11-21T00:02:47;11.10;99.90
48860;DHT22;34679;51.436;-2.518;2023-11-21T00:05:13;11.10;99.90
48860;DHT22;34679;51.436;-2.518;2023-11-21T00:07:40;11.10;99.90
48860;DHT22;34679;51.436;-2.518;2023-11-21T00:10:06;11.10;99.90
48860;DHT22;34679;51.436;-2.518;2023-11-21T00:12:36;11.00;99.90
48860;DHT22;34679;51.436;-2.518;2023-11-21T00:15:04;11.00;99.90
48860;DHT22;34679;51.436;-2.518;2023-11-21T00:17:39;11.00;99.90
48860;DHT22;34679;51.436;-2.518;2023-11-21T00:20:06;11.00;99.90
48860;DHT22;34679;51.436;-2.518;2023-11-21T00:22:34;11.00;99.90
48860;DHT22;34679;51.436;-2.518;2023-11-21T00:24:59;11.00;99.90
48860;DHT22;34679;51.436;-2.518;2023-11-21T00:27:25;11.00;99.90
48860;DHT22;34679;51.436;-2.518;2023-11-21T00:29:51;11.00;99.90
48860;DHT22;34679;51.436;-2.518;2023-11-21T00:32:16;11.00;99.90
48860;DHT22;34679;51.436;-2.518;2023-11-21T00:34:42;11.00;99.90
48860;DHT22;34679;51.436;-2.518;2023-11-21T00:37:08;11.10;99.90
48860;DHT22;34679;51.436;-2.518;2023-11-21T00:39:33;11.00;99.90
48860;DHT22;34679;51.436;-2.518;2023-11-21T00:42:00;11.10;99.90
48860;DHT22;34679;51.436;-2.518;2023-11-21T00:44:26;11.10;99.90
48860;DHT22;34679;51.436;-2.518;2023-11-21T00:46:52;11.10;99.90
48860;DHT22;34679;51.436;-2.518;2023-11-21T00:49:17;11.10;99.90
48860;DHT22;34679;51.436;-2.518;2023-11-21T00:51:43;11.10;99.90
48860;DHT22;34679;51.436;-2.518;2023-11-21T00:54:09;11.10;99.90
48860;DHT22;34679;51.436;-2.518;2023-11-21T00:56:34;11.10;99.90
48860;DHT22;34679;51.436;-2.518;2023-11-21T00:59:00;11.20;99.90
48860;DHT22;34679;51.436;-2.518;2023-11-21T01:01:25;11.20;99.90
48860;DHT22;34679;51.436;-2.518;2023-11-21T01:03:51;11.10;99.90
48860;DHT22;34679;51.436;-2.518;2023-11-21T01:06:17;11.10;99.90
48860;DHT22;34679;51.436;-2.518;2023-11-21T01:08:44;11.10;99.90
48860;DHT22;34679;51.436;-2.518;2023-11-21T01:11:10;11.10;99.90
48860;DHT22;34679;51.436;-2.518;2023-11-21T01:13:41;11.10;99.90
48860;DHT22;34679;51.436;-2.518;2023-11-21T01:16:08;11.10;99.90
48860;DHT22;34679;51.436;-2.518;2023-11-21T01:18:35;11.10;99.90
48860;DHT22;34679;51.436;-2.518;2023-11-21T01:21:00;11.10;99.90
48860;DHT22;34679;51.436;-2.518;2023-11-21T01:23:26;11.10;99.90
48860;DHT22;34679;51.436;-2.518;2023-11-21T01:25:53;11.10;99.90
48860;DHT22;34679;51.436;-2.518;2023-11-21T01:28:18;11.10;99.90
48860;DHT22;34679;51.436;-2.518;2023-11-21T01:30:45;11.10;99.90
48860;DHT22;34679;51.436;-2.518;2023-11-21T01:33:11;11.20;99.90
48860;DHT22;34679;51.436;-2.518;2023-11-21T01:35:37;11.10;99.90
48860;DHT22;34679;51.436;-2.518;2023-11-21T01:38:02;11.10;99.90
48860;DHT22;34679;51.436;-2.518;2023-11-21T01:40:29;11.10;99.90
48860;DHT22;34679;51.436;-2.518;2023-11-21T01:42:56;11.00;99.90
48860;DHT22;34679;51.436;-2.518;2023-11-21T01:45:22;11.00;99.90
48860;DHT22;34679;51.436;-2.518;2023-11-21T01:47:50;11.00;99.90
48860;DHT22;34679;51.436;-2.518;2023-11-21T01:50:17;11.00;99.90
48860;DHT22;34679;51.436;-2.518;2023-11-21T01:52:46;11.00;99.90
48860;DHT22;34679;51.436;-2.518;2023-11-21T01:55:15;11.00;99.90
48860;DHT22;34679;51.436;-2.518;2023-11-21T01:57:45;11.00;99.90
48860;DHT22;34679;51.436;-2.518;2023-11-21T02:00:12;11.00;99.90
48860;DHT22;34679;51.436;-2.518;2023-11-21T02:02:48;11.00;99.90
48860;DHT22;34679;51.436;-2.518;2023-11-21T02:05:18;11.00;99.90
48860;DHT22;34679;51.436;-2.518;2023-11-21T02:07:44;11.00;99.90
48860;DHT22;34679;51.436;-2.518;2023-11-21T02:10:10;10.90;99.90
48860;DHT22;34679;51.436;-2.518;2023-11-21T02:12:40;11.00;99.90
48860;DHT22;34679;51.436;-2.518;2023-11-21T02:15:08;11.00;99.90
48860;DHT22;34679;51.436;-2.518;2023-11-21T02:17:43;10.90;99.90
48860;DHT22;34679;51.436;-2.518;2023-11-21T02:20:11;11.00;99.90
48860;DHT22;34679;51.436;-2.518;2023-11-21T02:22:41;10.90;99.90
48860;DHT22;34679;51.436;-2.518;2023-11-21T02:25:08;10.90;99.90
48860;DHT22;34679;51.436;-2.518;2023-11-21T02:27:33;10.90;99.90
48860;DHT22;34679;51.436;-2.518;2023-11-21T02:29:59;10.90;99.90
48860;DHT22;34679;51.436;-2.518;2023-11-21T02:32:26;10.90;99.90
48860;DHT22;34679;51.436;-2.518;2023-11-21T02:34:52;10.90;99.90
48860;DHT22;34679;51.436;-2.518;2023-11-21T02:37:19;10.90;99.90
48860;DHT22;34679;51.436;-2.518;2023-11-21T02:39:45;10.90;99.90
48860;DHT22;34679;51.436;-2.518;2023-11-21T02:42:11;10.90;99.90
48860;DHT22;34679;51.436;-2.518;2023-11-21T02:44:36;10.90;99.90
48860;DHT22;34679;51.436;-2.518;2023-11-21T02:47:02;10.90;99.90
48860;DHT22;34679;51.436;-2.518;2023-11-21T02:49:28;10.90;99.90
48860;DHT22;34679;51.436;-2.518;2023-11-21T02:51:54;10.90;99.90
48860;DHT22;34679;51.436;-2.518;2023-11-21T02:54:23;10.90;99.90
48860;DHT22;34679;51.436;-2.518;2023-11-21T02:56:49;10.90;99.90
48860;DHT22;34679;51.436;-2.518;2023-11-21T02:59:15;10.90;99.90
48860;DHT22;34679;51.436;-2.518;2023-11-21T03:01:41;10.90;99.90
48860;DHT22;34679;51.436;-2.518;2023-11-21T03:04:07;10.90;99.90
48860;DHT22;34679;51.436;-2.518;2023-11-21T03:06:32;10.90;99.90
48860;DHT22;34679;51.436;-2.518;2023-11-21T03:08:59;10.90;99.90
48860;DHT22;34679;51.436;-2.518;2023-11-21T03:11:25;10.90;99.90
48860;DHT22;34679;51.436;-2.518;2023-11-21T03:13:50;10.90;99.90
48860;DHT22;34679;51.436;-2.518;2023-11-21T03:16:16;10.90;99.90
48860;DHT22;34679;51.436;-2.518;2023-11-21T03:18:42;10.90;99.90
48860;DHT22;34679;51.436;-2.518;2023-11-21T03:21:08;11.00;99.90
48860;DHT22;34679;51.436;-2.518;2023-11-21T03:23:35;11.00;99.90
48860;DHT22;34679;51.436;-2.518;2023-11-21T03:26:01;11.00;99.90
48860;DHT22;34679;51.436;-2.518;2023-11-21T03:28:27;11.00;99.90
48860;DHT22;34679;51.436;-2.518;2023-11-21T03:30:53;11.00;99.90
48860;DHT22;34679;51.436;-2.518;2023-11-21T03:33:19;11.00;99.90
48860;DHT22;34679;51.436;-2.518;2023-11-21T03:35:45;11.10;99.90
48860;DHT22;34679;51.436;-2.518;2023-11-21T03:38:11;11.00;99.90
48860;DHT22;34679;51.436;-2.518;2023-11-21T03:40:37;11.00;99.90
48860;DHT22;34679;51.436;-2.518;2023-11-21T03:43:05;11.00;99.90
48860;DHT22;34679;51.436;-2.518;2023-11-21T03:45:31;11.00;99.90
48860;DHT22;34679;51.436;-2.518;2023-11-21T03:47:57;11.00;99.90
48860;DHT22;34679;51.436;-2.518;2023-11-21T03:50:23;11.00;99.90
48860;DHT22;34679;51.436;-2.518;2023-11-21T03:52:48;11.00;99.90
48860;DHT22;34679;51.436;-2.518;2023-11-21T03:55:14;11.00;99.90
48860;DHT22;34679;51.436;-2.518;2023-11-21T03:57:40;10.90;99.90
48860;DHT22;34679;51.436;-2.518;2023-11-21T04:00:06;11.00;99.90
48860;DHT22;34679;51.436;-2.518;2023-11-21T04:02:34;10.90;99.90
48860;DHT22;34679;51.436;-2.518;2023-11-21T04:05:00;11.00;99.90
48860;DHT22;34679;51.436;-2.518;2023-11-21T04:07:26;10.90;99.90
48860;DHT22;34679;51.436;-2.518;2023-11-21T04:09:52;10.90;99.90
48860;DHT22;34679;51.436;-2.518;2023-11-21T04:12:19;10.90;99.90
48860;DHT22;34679;51.436;-2.518;2023-11-21T04:14:45;10.90;99.90
48860;DHT22;34679;51.436;-2.518;2023-11-21T04:17:10;10.90;99.90
48860;DHT22;34679;51.436;-2.518;2023-11-21T04:19:36;10.90;99.90
48860;DHT22;34679;51.436;-2.518;2023-11-21T04:22:02;10.90;99.90
48860;DHT22;34679;51.436;-2.518;2023-11-21T04:24:28;10.90;99.90
48860;DHT22;34679;51.436;-2.518;2023-11-21T04:26:53;10.80;99.90
48860;DHT22;34679;51.436;-2.518;2023-11-21T04:29:19;10.80;99.90
48860;DHT22;34679;51.436;-2.518;2023-11-21T04:31:45;10.80;99.90
48860;DHT22;34679;51.436;-2.518;2023-11-21T04:34:11;10.80;99.90
48860;DHT22;34679;51.436;-2.518;2023-11-21T04:36:38;10.80;99.90
48860;DHT22;34679;51.436;-2.518;2023-11-21T04:39:04;10.70;99.90
48860;DHT22;34679;51.436;-2.518;2023-11-21T04:41:31;10.70;99.90
48860;DHT22;34679;51.436;-2.518;2023-11-21T04:43:57;10.70;99.90
48860;DHT22;34679;51.436;-2.518;2023-11-21T04:46:24;10.60;99.90
48860;DHT22;34679;51.436;-2.518;2023-11-21T04:48:49;10.60;99.90
48860;DHT22;34679;51.436;-2.518;2023-11-21T04:51:15;10.60;99.90
48860;DHT22;34679;51.436;-2.518;2023-11-21T04:53:41;10.60;99.90
48860;DHT22;34679;51.436;-2.518;2023-11-21T04:56:07;10.60;99.90
48860;DHT22;34679;51.436;-2.518;2023-11-21T04:58:33;10.50;99.90
48860;DHT22;34679;51.436;-2.518;2023-11-21T05:00:58;10.50;99.90
48860;DHT22;34679;51.436;-2.518;2023-11-21T05:03:24;10.50;99.90
48860;DHT22;34679;51.436;-2.518;2023-11-21T05:05:50;10.50;99.90
48860;DHT22;34679;51.436;-2.518;2023-11-21T05:08:15;10.50;99.90
48860;DHT22;34679;51.436;-2.518;2023-11-21T05:10:41;10.50;99.90
48860;DHT22;34679;51.436;-2.518;2023-11-21T05:13:07;10.50;99.90
48860;DHT22;34679;51.436;-2.518;2023-11-21T05:15:35;10.50;99.90
48860;DHT22;34679;51.436;-2.518;2023-11-21T05:18:01;10.40;99.90
48860;DHT22;34679;51.436;-2.518;2023-11-21T05:20:27;10.40;99.90
48860;DHT22;34679;51.436;-2.518;2023-11-21T05:22:53;10.40;99.90
48860;DHT22;34679;51.436;-2.518;2023-11-21T05:25:19;10.50;99.90
48860;DHT22;34679;51.436;-2.518;2023-11-21T05:27:46;10.50;99.90
48860;DHT22;34679;51.436;-2.518;2023-11-21T05:30:12;10.40;99.90
48860;DHT22;34679;51.436;-2.518;2023-11-21T05:32:39;10.40;99.90
48860;DHT22;34679;51.436;-2.518;2023-11-21T05:35:05;10.40;99.90
48860;DHT22;34679;51.436;-2.518;2023-11-21T05:37:40;10.40;99.90
48860;DHT22;34679;51.436;-2.518;2023-11-21T05:40:07;10.40;99.90
48860;DHT22;34679;51.436;-2.518;2023-11-21T05:42:34;10.40;99.90
48860;DHT22;34679;51.436;-2.518;2023-11-21T05:44:59;10.40;99.90
48860;DHT22;34679;51.436;-2.518;2023-11-21T05:47:36;10.30;99.90
48860;DHT22;34679;51.436;-2.518;2023-11-21T05:50:04;10.30;99.90
48860;DHT22;34679;51.436;-2.518;2023-11-21T05:52:31;10.30;99.90
48860;DHT22;34679;51.436;-2.518;2023-11-21T05:54:58;10.30;99.90
48860;DHT22;34679;51.436;-2.518;2023-11-21T05:57:23;10.30;99.90
48860;DHT22;34679;51.436;-2.518;2023-11-21T05:59:49;10.30;99.90
48860;DHT22;34679;51.436;-2.518;2023-11-21T06:02:15;10.30;99.90
48860;DHT22;34679;51.436;-2.518;2023-11-21T06:04:40;10.30;99.90
48860;DHT22;34679;51.436;-2.518;2023-11-21T06:07:06;10.30;99.90
48860;DHT22;34679;51.436;-2.518;2023-11-21T06:09:32;10.30;99.90
48860;DHT22;34679;51.436;-2.518;2023-11-21T06:11:58;10.30;99.90
48860;DHT22;34679;51.436;-2.518;2023-11-21T06:14:24;10.30;99.90
48860;DHT22;34679;51.436;-2.518;2023-11-21T06:16:49;10.30;99.90
48860;DHT22;34679;51.436;-2.518;2023-11-21T06:19:17;10.30;99.90
48860;DHT22;34679;51.436;-2.518;2023-11-21T06:21:45;10.30;99.90
48860;DHT22;34679;51.436;-2.518;2023-11-21T06:24:12;10.30;99.90
48860;DHT22;34679;51.436;-2.518;2023-11-21T06:26:38;10.30;99.90
48860;DHT22;34679;51.436;-2.518;2023-11-21T06:29:04;10.20;99.90
48860;DHT22;34679;51.436;-2.518;2023-11-21T06:31:30;10.20;99.90
48860;DHT22;34679;51.436;-2.518;2023-11-21T06:33:58;10.20;99.90
48860;DHT22;34679;51.436;-2.518;2023-11-21T06:36:25;10.20;99.90
48860;DHT22;34679;51.436;-2.518;2023-11-21T06:38:52;10.20;99.90
48860;DHT22;34679;51.436;-2.518;2023-11-21T06:41:18;10.20;99.90
48860;DHT22;34679;51.436;-2.518;2023-11-21T06:43:43;10.20;99.90
48860;DHT22;34679;51.436;-2.518;2023-11-21T06:46:12;10.20;99.90
48860;DHT22;34679;51.436;-2.518;2023-11-21T06:48:42;10.20;99.90
48860;DHT22;34679;51.436;-2.518;2023-11-21T06:51:07;10.20;99.90
48860;DHT22;34679;51.436;-2.518;2023-11-21T06:53:33;10.20;99.90
48860;DHT22;34679;51.436;-2.518;2023-11-21T06:55:59;10.10;99.90
48860;DHT22;34679;51.436;-2.518;2023-11-21T06:58:25;10.20;99.90
48860;DHT22;34679;51.436;-2.518;2023-11-21T07:00:50;10.10;99.90
48860;DHT22;34679;51.436;-2.518;2023-11-21T07:03:17;10.20;99.90
48860;DHT22;34679;51.436;-2.518;2023-11-21T07:05:44;10.20;99.90
48860;DHT22;34679;51.436;-2.518;2023-11-21T07:08:10;10.10;99.90
48860;DHT22;34679;51.436;-2.518;2023-11-21T07:10:36;10.10;99.90
48860;DHT22;34679;51.436;-2.518;2023-11-21T07:13:02;10.10;99.90
48860;DHT22;34679;51.436;-2.518;2023-11-21T07:15:28;10.10;99.90
48860;DHT22;34679;51.436;-2.518;2023-11-21T07:17:53;10.10;99.90
48860;DHT22;34679;51.436;-2.518;2023-11-21T07:20:19;10.10;99.90
48860;DHT22;34679;51.436;-2.518;2023-11-21T07:22:46;10.10;99.90
48860;DHT22;34679;51.436;-2.518;2023-11-21T07:25:12;10.10;99.90
48860;DHT22;34679;51.436;-2.518;2023-11-21T07:27:38;10.00;99.90
48860;DHT22;34679;51.436;-2.518;2023-11-21T07:30:04;10.10;99.90
48860;DHT22;34679;51.436;-2.518;2023-11-21T07:32:31;10.10;99.90
48860;DHT22;34679;51.436;-2.518;2023-11-21T07:34:57;10.10;99.90
48860;DHT22;34679;51.436;-2.518;2023-11-21T07:37:25;10.10;99.90
48860;DHT22;34679;51.436;-2.518;2023-11-21T07:39:51;10.10;99.90
48860;DHT22;34679;51.436;-2.518;2023-11-21T07:42:23;10.10;99.90
48860;DHT22;34679;51.436;-2.518;2023-11-21T07:44:49;10.10;99.90
48860;DHT22;34679;51.436;-2.518;2023-11-21T07:47:15;10.00;99.90
48860;DHT22;34679;51.436;-2.518;2023-11-21T07:49:41;10.10;99.90
48860;DHT22;34679;51.436;-2.518;2023-11-21T07:52:09;10.10;99.90
48860;DHT22;34679;51.436;-2.518;2023-11-21T07:54:35;10.10;99.90
48860;DHT22;34679;51.436;-2.518;2023-11-21T07:57:01;10.10;99.90
48860;DHT22;34679;51.436;-2.518;2023-11-21T07:59:27;10.10;99.90
48860;DHT22;34679;51.436;-2.518;2023-11-21T08:01:52;10.10;99.90
48860;DHT22;34679;51.436;-2.518;2023-11-21T08:04:18;10.10;99.90
48860;DHT22;34679;51.436;-2.518;2023-11-21T08:06:44;10.10;99.90
48860;DHT22;34679;51.436;-2.518;2023-11-21T08:09:09;10.10;99.90
48860;DHT22;34679;51.436;-2.518;2023-11-21T08:11:35;10.20;99.90
48860;DHT22;34679;51.436;-2.518;2023-11-21T08:14:01;10.20;99.90
48860;DHT22;34679;51.436;-2.518;2023-11-21T08:16:26;10.20;99.90
48860;DHT22;34679;51.436;-2.518;2023-11-21T08:18:52;10.20;99.90
48860;DHT22;34679;51.436;-2.518;2023-11-21T08:21:19;10.10;99.90
48860;DHT22;34679;51.436;-2.518;2023-11-21T08:23:45;10.10;99.90
48860;DHT22;34679;51.436;-2.518;2023-11-21T08:26:11;10.20;99.90
48860;DHT22;34679;51.436;-2.518;2023-11-21T08:28:36;10.20;99.90
48860;DHT22;34679;51.436;-2.518;2023-11-21T08:31:02;10.20;99.90
48860;DHT22;34679;51.436;-2.518;2023-11-21T08:33:28;10.20;99.90
48860;DHT22;34679;51.436;-2.518;2023-11-21T08:35:53;10.20;99.90
48860;DHT22;34679;51.436;-2.518;2023-11-21T08:38:19;10.20;99.90
48860;DHT22;34679;51.436;-2.518;2023-11-21T08:40:45;10.20;99.90
48860;DHT22;34679;51.436;-2.518;2023-11-21T08:43:11;10.30;99.90
48860;DHT22;34679;51.436;-2.518;2023-11-21T08:45:37;10.30;99.90
48860;DHT22;34679;51.436;-2.518;2023-11-21T08:48:03;10.20;99.90
48860;DHT22;34679;51.436;-2.518;2023-11-21T08:50:29;10.30;99.90
48860;DHT22;34679;51.436;-2.518;2023-11-21T08:52:55;10.30;99.90
48860;DHT22;34679;51.436;-2.518;2023-11-21T08:55:21;10.20;99.90
48860;DHT22;34679;51.436;-2.518;2023-11-21T08:57:47;10.30;99.90
48860;DHT22;34679;51.436;-2.518;2023-11-21T09:00:13;10.30;99.90
48860;DHT22;34679;51.436;-2.518;2023-11-21T09:02:41;10.30;99.90
48860;DHT22;34679;51.436;-2.518;2023-11-21T09:05:08;10.40;99.90
48860;DHT22;34679;51.436;-2.518;2023-11-21T09:07:35;10.40;99.90
48860;DHT22;34679;51.436;-2.518;2023-11-21T09:10:01;10.40;99.90
48860;DHT22;34679;51.436;-2.518;2023-11-21T09:12:27;10.40;99.90
48860;DHT22;34679;51.436;-2.518;2023-11-21T09:14:53;10.40;99.90
48860;DHT22;34679;51.436;-2.518;2023-11-21T09:17:19;10.50;99.90
48860;DHT22;34679;51.436;-2.518;2023-11-21T09:19:45;10.50;99.90
48860;DHT22;34679;51.436;-2.518;2023-11-21T09:22:15;10.40;99.90
48860;DHT22;34679;51.436;-2.518;2023-11-21T09:24:41;10.40;99.90
48860;DHT22;34679;51.436;-2.518;2023-11-21T09:27:08;10.50;99.90
48860;DHT22;34679;51.436;-2.518;2023-11-21T09:29:35;10.50;99.90
48860;DHT22;34679;51.436;-2.518;2023-11-21T09:32:01;10.50;99.90
48860;DHT22;34679;51.436;-2.518;2023-11-21T09:34:27;10.50;99.90
48860;DHT22;34679;51.436;-2.518;2023-11-21T09:36:52;10.60;99.90
48860;DHT22;34679;51.436;-2.518;2023-11-21T09:39:19;10.60;99.90
48860;DHT22;34679;51.436;-2.518;2023-11-21T09:41:52;10.60;99.90
48860;DHT22;34679;51.436;-2.518;2023-11-21T09:44:35;10.50;99.90
48860;DHT22;34679;51.436;-2.518;2023-11-21T09:47:02;10.50;99.90
48860;DHT22;34679;51.436;-2.518;2023-11-21T09:49:28;10.50;99.90
48860;DHT22;34679;51.436;-2.518;2023-11-21T09:52:01;10.50;99.90
48860;DHT22;34679;51.436;-2.518;2023-11-21T09:54:28;10.50;99.90
48860;DHT22;34679;51.436;-2.518;2023-11-21T09:56:54;10.50;99.90
48860;DHT22;34679;51.436;-2.518;2023-11-21T09:59:21;10.40;99.90
48860;DHT22;34679;51.436;-2.518;2023-11-21T10:01:47;10.50;99.90
48860;DHT22;34679;51.436;-2.518;2023-11-21T10:04:13;10.60;99.90
48860;DHT22;34679;51.436;-2.518;2023-11-21T10:06:40;10.60;99.90
48860;DHT22;34679;51.436;-2.518;2023-11-21T10:09:12;10.50;99.90
48860;DHT22;34679;51.436;-2.518;2023-11-21T10:11:42;10.50;99.90
48860;DHT22;34679;51.436;-2.518;2023-11-21T10:14:12;10.60;99.90
48860;DHT22;34679;51.436;-2.518;2023-11-21T10:16:40;10.50;99.90
48860;DHT22;34679;51.436;-2.518;2023-11-21T10:19:10;10.50;99.90
48860;DHT22;34679;51.436;-2.518;2023-11-21T10:21:37;10.50;99.90
48860;DHT22;34679;51.436;-2.518;2023-11-21T10:24:03;10.60;99.90
48860;DHT22;34679;51.436;-2.518;2023-11-21T10:26:30;10.60;99.90
48860;DHT22;34679;51.436;-2.518;2023-11-21T10:28:59;10.60;99.90
48860;DHT22;34679;51.436;-2.518;2023-11-21T10:31:29;10.60;99.90
48860;DHT22;34679;51.436;-2.518;2023-11-21T10:34:13;10.60;99.90
48860;DHT22;34679;51.436;-2.518;2023-11-21T10:36:39;10.70;99.90
48860;DHT22;34679;51.436;-2.518;2023-11-21T10:39:05;10.70;99.90
48860;DHT22;34679;51.436;-2.518;2023-11-21T10:41:31;10.80;99.90
48860;DHT22;34679;51.436;-2.518;2023-11-21T10:43:57;10.80;99.90
48860;DHT22;34679;51.436;-2.518;2023-11-21T10:46:23;10.70;99.90
48860;DHT22;34679;51.436;-2.518;2023-11-21T10:48:55;10.70;99.90
48860;DHT22;34679;51.436;-2.518;2023-11-21T10:51:21;10.70;99.90
48860;DHT22;34679;51.436;-2.518;2023-11-21T10:53:47;10.60;99.90
48860;DHT22;34679;51.436;-2.518;2023-11-21T10:56:18;10.60;99.90
48860;DHT22;34679;51.436;-2.518;2023-11-21T10:58:45;10.60;99.90
48860;DHT22;34679;51.436;-2.518;2023-11-21T11:01:11;10.60;99.90
48860;DHT22;34679;51.436;-2.518;2023-11-21T11:03:40;10.60;99.90
48860;DHT22;34679;51.436;-2.518;2023-11-21T11:06:07;10.60;99.90
48860;DHT22;34679;51.436;-2.518;2023-11-21T11:08:37;10.70;99.90
48860;DHT22;34679;51.436;-2.518;2023-11-21T11:11:07;10.70;99.90
48860;DHT22;34679;51.436;-2.518;2023-11-21T11:13:33;10.70;99.90
48860;DHT22;34679;51.436;-2.518;2023-11-21T11:16:00;10.80;99.90
48860;DHT22;34679;51.436;-2.518;2023-11-21T11:18:33;10.80;99.90
48860;DHT22;34679;51.436;-2.518;2023-11-21T11:34:44;11.20;99.90
48860;DHT22;34679;51.436;-2.518;2023-11-21T11:37:12;11.30;99.90
48860;DHT22;34679;51.436;-2.518;2023-11-21T11:39:40;11.20;99.90
48860;DHT22;34679;51.436;-2.518;2023-11-21T11:42:14;11.20;99.90
48860;DHT22;34679;51.436;-2.518;2023-11-21T11:47:16;11.10;99.90
48860;DHT22;34679;51.436;-2.518;2023-11-21T11:55:02;11.00;99.90
48860;DHT22;34679;51.436;-2.518;2023-11-21T11:57:34;11.00;99.90
48860;DHT22;34679;51.436;-2.518;2023-11-21T12:02:40;11.00;99.90
48860;DHT22;34679;51.436;-2.518;2023-11-21T12:05:13;11.00;99.90
48860;DHT22;34679;51.436;-2.518;2023-11-21T12:10:19;10.90;99.90
48860;DHT22;34679;51.436;-2.518;2023-11-21T12:12:57;10.90;99.90
48860;DHT22;34679;51.436;-2.518;2023-11-21T12:15:23;11.00;99.90
48860;DHT22;34679;51.436;-2.518;2023-11-21T12:17:50;11.00;99.90
48860;DHT22;34679;51.436;-2.518;2023-11-21T12:20:19;11.10;99.90
48860;DHT22;34679;51.436;-2.518;2023-11-21T12:22:52;11.20;99.90
48860;DHT22;34679;51.436;-2.518;2023-11-21T12:25:25;11.10;99.90
48860;DHT22;34679;51.436;-2.518;2023-11-21T12:27:55;11.20;99.90
48860;DHT22;34679;51.436;-2.518;2023-11-21T12:30:23;11.10;99.90
48860;DHT22;34679;51.436;-2.518;2023-11-21T12:32:52;11.00;99.90
48860;DHT22;34679;51.436;-2.518;2023-11-21T12:35:23;11.00;99.90
48860;DHT22;34679;51.436;-2.518;2023-11-21T12:37:49;11.00;99.90
48860;DHT22;34679;51.436;-2.518;2023-11-21T12:40:17;11.10;99.90
48860;DHT22;34679;51.436;-2.518;2023-11-21T12:42:47;11.00;99.90
48860;DHT22;34679;51.436;-2.518;2023-11-21T12:47:48;11.00;99.90
48860;DHT22;34679;51.436;-2.518;2023-11-21T12:50:23;11.10;99.90
48860;DHT22;34679;51.436;-2.518;2023-11-21T12:52:51;11.00;99.90
48860;DHT22;34679;51.436;-2.518;2023-11-21T12:55:20;11.10;99.90
48860;DHT22;34679;51.436;-2.518;2023-11-21T12:57:50;11.00;99.90
48860;DHT22;34679;51.436;-2.518;2023-11-21T13:00:18;11.10;99.90
48860;DHT22;34679;51.436;-2.518;2023-11-21T13:02:54;11.20;99.90
48860;DHT22;34679;51.436;-2.518;2023-11-21T13:05:36;11.20;99.90
48860;DHT22;34679;51.436;-2.518;2023-11-21T13:08:06;11.10;99.90
48860;DHT22;34679;51.436;-2.518;2023-11-21T13:10:43;11.10;99.90
48860;DHT22;34679;51.436;-2.518;2023-11-21T13:13:13;11.10;99.90
48860;DHT22;34679;51.436;-2.518;2023-11-21T13:15:51;11.10;99.90
48860;DHT22;34679;51.436;-2.518;2023-11-21T13:18:18;11.10;99.90
48860;DHT22;34679;51.436;-2.518;2023-11-21T13:20:43;11.00;99.90
48860;DHT22;34679;51.436;-2.518;2023-11-21T13:23:10;11.00;99.90
48860;DHT22;34679;51.436;-2.518;2023-11-21T13:25:42;11.00;99.90
48860;DHT22;34679;51.436;-2.518;2023-11-21T13:28:08;11.00;99.90
48860;DHT22;34679;51.436;-2.518;2023-11-21T13:30:35;11.00;99.90
48860;DHT22;34679;51.436;-2.518;2023-11-21T13:33:05;11.00;99.90
48860;DHT22;34679;51.436;-2.518;2023-11-21T13:35:39;11.00;99.90
48860;DHT22;34679;51.436;-2.518;2023-11-21T13:38:16;11.00;99.90
48860;DHT22;34679;51.436;-2.518;2023-11-21T13:40:57;11.10;99.90
48860;DHT22;34679;51.436;-2.518;2023-11-21T13:43:24;11.10;99.90
48860;DHT22;34679;51.436;-2.518;2023-11-21T13:45:52;11.10;99.90
48860;DHT22;34679;51.436;-2.518;2023-11-21T13:48:28;11.10;99.90
48860;DHT22;34679;51.436;-2.518;2023-11-21T13:51:00;11.10;99.90
48860;DHT22;34679;51.436;-2.518;2023-11-21T13:53:43;11.10;99.90
48860;DHT22;34679;51.436;-2.518;2023-11-21T13:56:09;11.00;99.90
48860;DHT22;34679;51.436;-2.518;2023-11-21T13:58:36;10.90;99.90
48860;DHT22;34679;51.436;-2.518;2023-11-21T14:01:16;10.90;99.90
48860;DHT22;34679;51.436;-2.518;2023-11-21T14:04:03;10.90;99.90
48860;DHT22;34679;51.436;-2.518;2023-11-21T14:06:42;10.90;99.90
48860;DHT22;34679;51.436;-2.518;2023-11-21T14:09:23;10.90;99.90
48860;DHT22;34679;51.436;-2.518;2023-11-21T14:11:58;10.90;99.90
48860;DHT22;34679;51.436;-2.518;2023-11-21T14:14:27;10.90;99.90
48860;DHT22;34679;51.436;-2.518;2023-11-21T14:16:56;10.90;99.90
48860;DHT22;34679;51.436;-2.518;2023-11-21T14:19:24;10.80;99.90
48860;DHT22;34679;51.436;-2.518;2023-11-21T14:21:53;10.80;99.90
48860;DHT22;34679;51.436;-2.518;2023-11-21T14:24:19;10.80;99.90
48860;DHT22;34679;51.436;-2.518;2023-11-21T14:26:46;11.00;99.90
48860;DHT22;34679;51.436;-2.518;2023-11-21T14:29:13;10.90;99.90
48860;DHT22;34679;51.436;-2.518;2023-11-21T14:31:41;10.90;99.90
48860;DHT22;34679;51.436;-2.518;2023-11-21T14:34:07;10.90;99.90
48860;DHT22;34679;51.436;-2.518;2023-11-21T14:36:34;10.90;99.90
48860;DHT22;34679;51.436;-2.518;2023-11-21T14:39:03;10.90;99.90
48860;DHT22;34679;51.436;-2.518;2023-11-21T14:41:32;10.90;99.90
48860;DHT22;34679;51.436;-2.518;2023-11-21T14:44:00;10.90;99.90
48860;DHT22;34679;51.436;-2.518;2023-11-21T14:46:29;10.80;99.90
48860;DHT22;34679;51.436;-2.518;2023-11-21T14:48:54;10.90;99.90
48860;DHT22;34679;51.436;-2.518;2023-11-21T14:51:26;10.90;99.90
48860;DHT22;34679;51.436;-2.518;2023-11-21T14:53:51;10.80;99.90
48860;DHT22;34679;51.436;-2.518;2023-11-21T14:56:20;10.80;99.90
48860;DHT22;34679;51.436;-2.518;2023-11-21T14:58:53;10.80;99.90
48860;DHT22;34679;51.436;-2.518;2023-11-21T15:01:20;10.80;99.90
48860;DHT22;34679;51.436;-2.518;2023-11-21T15:03:59;10.90;99.90
48860;DHT22;34679;51.436;-2.518;2023-11-21T15:06:24;10.80;99.90
48860;DHT22;34679;51.436;-2.518;2023-11-21T15:08:53;10.80;99.90
48860;DHT22;34679;51.436;-2.518;2023-11-21T15:11:35;10.80;99.90
48860;DHT22;34679;51.436;-2.518;2023-11-21T15:14:02;10.70;99.90
48860;DHT22;34679;51.436;-2.518;2023-11-21T15:16:33;10.70;99.90
48860;DHT22;34679;51.436;-2.518;2023-11-21T15:18:58;10.70;99.90
48860;DHT22;34679;51.436;-2.518;2023-11-21T15:21:25;10.60;99.90
48860;DHT22;34679;51.436;-2.518;2023-11-21T15:23:51;10.60;99.90
48860;DHT22;34679;51.436;-2.518;2023-11-21T15:26:17;10.50;99.90
48860;DHT22;34679;51.436;-2.518;2023-11-21T15:28:42;10.50;99.90
48860;DHT22;34679;51.436;-2.518;2023-11-21T15:31:08;10.40;99.90
48860;DHT22;34679;51.436;-2.518;2023-11-21T15:33:34;10.40;99.90
48860;DHT22;34679;51.436;-2.518;2023-11-21T15:36:03;10.30;99.90
48860;DHT22;34679;51.436;-2.518;2023-11-21T15:38:29;10.30;99.90
48860;DHT22;34679;51.436;-2.518;2023-11-21T15:40:55;10.30;99.90
48860;DHT22;34679;51.436;-2.518;2023-11-21T15:43:23;10.20;99.90
48860;DHT22;34679;51.436;-2.518;2023-11-21T15:45:49;10.20;99.90